Terminal Aerodrome Forecast
Issued by NWS

Home | Current Version | Previous Version | Text Only | Print | Product List | Glossary On
Versions: 1 2 3 4 5 6 7 8 9 10 11 12 13 14 15 16 17 18
000
FTUS44 KLIX 241223 AAA
TAFMSY
TAF AMD
KMSY 241223Z 2412/2512 17005KT P6SM SCT003 BKN015
     FM241700 19009KT P6SM BKN035
     FM250500 23007KT P6SM OVC008
     FM250700 28008KT P6SM BKN010
     FM251000 34013G21KT P6SM BKN050=

USA.gov is the U.S. government's official web portal to all federal, state and local government web resources and services.